createdAt,value
2022-07-31T00:05:03.905Z,101310.00
2022-07-31T00:07:31.107Z,101303.00
2022-07-31T00:10:00.653Z,101298.00
2022-07-31T00:15:26.396Z,101306.00
2022-07-31T00:18:00.441Z,101306.00
2022-07-31T00:21:01.194Z,101304.00
2022-07-31T00:23:28.913Z,101304.00
2022-07-31T00:25:55.873Z,101296.00
2022-07-31T00:28:22.640Z,101298.00
2022-07-31T00:30:49.481Z,101298.00
2022-07-31T00:33:16.225Z,101300.00
2022-07-31T00:35:44.045Z,101295.00
2022-07-31T00:38:27.281Z,101298.00
2022-07-31T00:40:54.703Z,101290.00
2022-07-31T00:43:21.621Z,101291.00
2022-07-31T00:45:51.726Z,101296.00
2022-07-31T00:48:26.010Z,101287.00
2022-07-31T00:50:55.221Z,101285.00
2022-07-31T00:53:21.988Z,101289.00
2022-07-31T00:55:51.966Z,101285.00
2022-07-31T00:58:20.214Z,101270.00
2022-07-31T01:00:47.580Z,101279.00
2022-07-31T01:03:14.724Z,101274.00
2022-07-31T01:05:41.865Z,101269.00
2022-07-31T01:08:08.845Z,101272.00
2022-07-31T01:10:35.552Z,101276.00
2022-07-31T01:13:08.440Z,101279.00
2022-07-31T01:15:36.918Z,101274.00
2022-07-31T01:18:04.895Z,101274.00
2022-07-31T01:21:17.566Z,101274.00
2022-07-31T01:24:05.203Z,101279.00
2022-07-31T01:26:44.074Z,101270.00
2022-07-31T01:29:57.437Z,101273.00
2022-07-31T01:32:46.675Z,101268.00
2022-07-31T01:38:45.283Z,101269.00
2022-07-31T01:41:23.734Z,101273.00
2022-07-31T01:44:00.303Z,101271.00
2022-07-31T01:46:31.176Z,101275.00
2022-07-31T01:49:25.273Z,101277.00
2022-07-31T01:52:15.062Z,101275.00
2022-07-31T01:57:27.313Z,101266.00
2022-07-31T02:00:33.850Z,101259.00
2022-07-31T02:03:43.636Z,101267.00
2022-07-31T02:06:10.432Z,101265.00
2022-07-31T02:08:38.402Z,101262.00
2022-07-31T02:11:15.211Z,101255.00
2022-07-31T02:14:14.218Z,101251.00
2022-07-31T02:16:46.660Z,101241.00
2022-07-31T02:19:24.018Z,101246.00
2022-07-31T02:21:56.802Z,101245.00
2022-07-31T02:24:29.271Z,101255.00
2022-07-31T02:27:05.023Z,101255.00
2022-07-31T02:29:55.397Z,101251.00
2022-07-31T02:32:41.368Z,101251.00
2022-07-31T05:07:35.097Z,101271.00
2022-07-31T06:16:50.298Z,101260.00
2022-07-31T06:51:39.200Z,101255.00
2022-07-31T07:01:17.180Z,101254.00
2022-07-31T07:04:22.424Z,101258.00
2022-07-31T07:17:00.185Z,101250.00
2022-07-31T07:20:07.228Z,101254.00
2022-07-31T07:22:55.064Z,101255.00
2022-07-31T07:26:53.281Z,101239.00
2022-07-31T07:50:51.390Z,101296.00
2022-07-31T07:56:56.774Z,101299.00
2022-07-31T07:59:42.632Z,101288.00
2022-07-31T08:02:24.209Z,101283.00
2022-07-31T08:11:17.290Z,101280.00
2022-07-31T08:48:28.834Z,101326.00
2022-07-31T08:51:51.412Z,101322.00
2022-07-31T09:14:27.923Z,101315.00
2022-07-31T09:17:57.350Z,101331.00
2022-07-31T09:20:49.298Z,101318.00
2022-07-31T09:26:38.661Z,101314.00
2022-07-31T09:29:18.819Z,101313.00
2022-07-31T09:32:13.194Z,101304.00
2022-07-31T09:42:22.101Z,101288.00
2022-07-31T09:53:05.435Z,101318.00
2022-07-31T09:56:03.565Z,101318.00
2022-07-31T10:09:30.834Z,101299.00
2022-07-31T10:12:44.880Z,101309.00
2022-07-31T10:18:55.914Z,101324.00
2022-07-31T10:22:03.259Z,101313.00
2022-07-31T10:33:48.863Z,101306.00
2022-07-31T10:36:44.707Z,101307.00
2022-07-31T10:39:30.142Z,101313.00
2022-07-31T10:42:33.455Z,101292.00
2022-07-31T10:48:23.786Z,101298.00
2022-07-31T10:51:20.211Z,101290.00
2022-07-31T10:54:37.026Z,101278.00
2022-07-31T10:57:57.212Z,101264.00
2022-07-31T11:02:27.893Z,101276.00
2022-07-31T11:04:35.120Z,101260.00
2022-07-31T11:15:25.655Z,101276.00
2022-07-31T11:18:23.222Z,101281.00
2022-07-31T11:24:30.681Z,101273.00
2022-07-31T11:27:32.857Z,101249.00
2022-07-31T11:30:38.842Z,101279.00
2022-07-31T11:33:48.816Z,101276.00
2022-07-31T11:36:38.463Z,101256.00
2022-07-31T11:39:15.860Z,101257.00
2022-07-31T11:41:52.058Z,101241.00
2022-07-31T11:44:40.325Z,101237.00
2022-07-31T11:48:10.062Z,101267.00
2022-07-31T11:50:20.441Z,101230.00
2022-07-31T11:53:57.797Z,101220.00
2022-07-31T12:03:14.840Z,101238.00
2022-07-31T12:06:47.697Z,101243.00
2022-07-31T12:10:00.358Z,101243.00
2022-07-31T13:01:30.331Z,101141.00
2022-07-31T13:07:18.882Z,101126.00
2022-07-31T13:23:22.696Z,101138.00
2022-07-31T13:26:02.551Z,101154.00
2022-07-31T13:28:56.658Z,101146.00
2022-07-31T13:31:26.137Z,101108.00
2022-07-31T13:33:58.352Z,101126.00
2022-07-31T13:36:35.621Z,101112.00
2022-07-31T13:39:26.706Z,101082.00
2022-07-31T13:42:57.971Z,101104.00
2022-07-31T13:55:39.412Z,101076.00
2022-07-31T13:58:06.343Z,101069.00
2022-07-31T14:00:33.185Z,101080.00
2022-07-31T14:03:00.096Z,101072.00
2022-07-31T14:05:27.553Z,101052.00
2022-07-31T14:07:55.514Z,101063.00
2022-07-31T14:10:25.542Z,101055.00
2022-07-31T14:12:56.110Z,101059.00
2022-07-31T14:15:24.591Z,101045.00
2022-07-31T14:17:56.414Z,101054.00
2022-07-31T14:20:23.782Z,101034.00
2022-07-31T14:22:50.764Z,101050.00
2022-07-31T14:25:20.625Z,101023.00
2022-07-31T14:27:47.473Z,101052.00
2022-07-31T14:30:19.852Z,101041.00
2022-07-31T14:32:53.250Z,101054.00
2022-07-31T14:35:20.200Z,101052.00
2022-07-31T14:37:48.012Z,101050.00
2022-07-31T14:40:16.320Z,101038.00
2022-07-31T14:42:46.355Z,101042.00
2022-07-31T14:45:13.521Z,101045.00
2022-07-31T14:47:40.415Z,101036.00
2022-07-31T14:50:11.981Z,100996.00
2022-07-31T14:52:41.216Z,101018.00
2022-07-31T14:55:10.071Z,101009.00
2022-07-31T14:57:37.059Z,101000.00
2022-07-31T15:00:26.414Z,100986.00
2022-07-31T15:03:35.164Z,100991.00
2022-07-31T15:06:39.869Z,100984.00
2022-07-31T15:08:51.507Z,100994.00
2022-07-31T15:11:18.968Z,100966.00
2022-07-31T15:13:46.055Z,100974.00
2022-07-31T15:16:21.782Z,100954.00
2022-07-31T15:29:05.518Z,100967.00
2022-07-31T15:31:40.010Z,100976.00
2022-07-31T15:34:10.737Z,100957.00
2022-07-31T15:37:11.633Z,100946.00
2022-07-31T15:45:21.678Z,100938.00
2022-07-31T15:52:29.833Z,100979.00
2022-07-31T16:36:16.905Z,100948.00
2022-07-31T16:38:54.906Z,100952.00
2022-07-31T16:41:30.747Z,100938.00
2022-07-31T16:43:57.629Z,100940.00
2022-07-31T16:46:24.475Z,100934.00
2022-07-31T16:48:51.391Z,100925.00
2022-07-31T16:51:18.301Z,100927.00
2022-07-31T16:54:11.367Z,100913.00
2022-07-31T16:56:32.510Z,100921.00
2022-07-31T16:59:01.404Z,100910.00
2022-07-31T17:01:57.905Z,100917.00
2022-07-31T17:04:15.180Z,100912.00
2022-07-31T17:06:42.010Z,100905.00
2022-07-31T17:09:18.585Z,100908.00
2022-07-31T17:11:47.620Z,100901.00
2022-07-31T17:14:16.045Z,100906.00
2022-07-31T17:16:47.110Z,100901.00
2022-07-31T17:19:16.728Z,100896.00
2022-07-31T17:22:04.326Z,100901.00
2022-07-31T17:24:32.035Z,100907.00
2022-07-31T17:26:59.811Z,100903.00
2022-07-31T17:29:26.757Z,100901.00
2022-07-31T17:31:53.667Z,100898.00
2022-07-31T17:34:20.627Z,100891.00
2022-07-31T17:36:50.151Z,100882.00
2022-07-31T17:39:17.085Z,100880.00
2022-07-31T17:41:44.180Z,100890.00
2022-07-31T17:44:11.402Z,100884.00
2022-07-31T17:46:48.104Z,100880.00
2022-07-31T17:49:19.556Z,100878.00
2022-07-31T17:51:57.871Z,100871.00
2022-07-31T17:54:28.981Z,100875.00
2022-07-31T17:56:56.073Z,100882.00
2022-07-31T17:59:23.279Z,100884.00
2022-07-31T18:01:52.255Z,100887.00
2022-07-31T18:04:21.087Z,100880.00
2022-07-31T18:06:54.219Z,100888.00
2022-07-31T18:09:23.475Z,100885.00
2022-07-31T18:11:51.477Z,100886.00
2022-07-31T18:14:18.869Z,100880.00
2022-07-31T18:16:46.165Z,100884.00
2022-07-31T18:19:25.744Z,100891.00
2022-07-31T18:22:49.857Z,100888.00
2022-07-31T18:25:17.503Z,100879.00
2022-07-31T18:27:44.376Z,100879.00
2022-07-31T18:30:11.750Z,100880.00
2022-07-31T18:32:52.597Z,100876.00
2022-07-31T18:35:20.333Z,100875.00
2022-07-31T18:37:47.183Z,100884.00
2022-07-31T18:40:14.165Z,100887.00
2022-07-31T18:42:41.069Z,100890.00
2022-07-31T18:45:08.583Z,100885.00
2022-07-31T18:47:35.616Z,100877.00
2022-07-31T18:51:00.670Z,100874.00
2022-07-31T18:52:50.248Z,100870.00
2022-07-31T18:55:17.099Z,100873.00
2022-07-31T18:57:44.176Z,100871.00
2022-07-31T19:00:11.500Z,100878.00
2022-07-31T19:02:38.428Z,100869.00
2022-07-31T19:05:07.544Z,100870.00
2022-07-31T19:07:48.988Z,100880.00
2022-07-31T19:10:29.633Z,100870.00
2022-07-31T19:12:59.727Z,100875.00
2022-07-31T19:15:26.566Z,100879.00
2022-07-31T19:18:04.909Z,100872.00
2022-07-31T19:20:50.885Z,100869.00
2022-07-31T19:23:21.288Z,100867.00
2022-07-31T19:26:02.677Z,100867.00
2022-07-31T19:28:36.894Z,100861.00
2022-07-31T19:31:03.837Z,100866.00
2022-07-31T19:33:30.877Z,100863.00
2022-07-31T19:36:01.997Z,100866.00
2022-07-31T19:38:30.718Z,100864.00
2022-07-31T19:40:57.615Z,100873.00
2022-07-31T19:43:24.794Z,100861.00
2022-07-31T19:46:10.600Z,100854.00
2022-07-31T19:48:40.858Z,100858.00
2022-07-31T19:51:08.139Z,100854.00
2022-07-31T19:53:35.507Z,100855.00
2022-07-31T19:56:05.718Z,100849.00
2022-07-31T19:58:34.710Z,100856.00
2022-07-31T20:01:05.736Z,100853.00
2022-07-31T20:03:35.007Z,100854.00
2022-07-31T20:06:02.811Z,100850.00
2022-07-31T20:08:33.668Z,100838.00
2022-07-31T20:11:03.733Z,100836.00
2022-07-31T20:13:35.130Z,100846.00
2022-07-31T20:16:02.034Z,100851.00
2022-07-31T20:18:32.251Z,100844.00
2022-07-31T20:21:07.400Z,100849.00
2022-07-31T20:23:38.303Z,100844.00
2022-07-31T20:26:24.712Z,100844.00
2022-07-31T20:29:00.897Z,100839.00
2022-07-31T20:31:46.990Z,100832.00
2022-07-31T20:34:33.242Z,100833.00
2022-07-31T20:37:00.176Z,100831.00
2022-07-31T20:39:33.272Z,100828.00
2022-07-31T20:42:01.121Z,100828.00
2022-07-31T20:44:27.977Z,100817.00
2022-07-31T20:46:54.835Z,100825.00
2022-07-31T20:49:34.688Z,100822.00
2022-07-31T20:52:03.567Z,100822.00
2022-07-31T20:54:34.528Z,100821.00
2022-07-31T20:57:01.772Z,100816.00
2022-07-31T20:59:28.685Z,100816.00
2022-07-31T21:01:55.609Z,100810.00
2022-07-31T21:04:22.501Z,100817.00
2022-07-31T21:06:49.309Z,100817.00
2022-07-31T21:09:16.202Z,100804.00
2022-07-31T21:11:43.013Z,100811.00
2022-07-31T21:14:09.873Z,100813.00
2022-07-31T21:16:36.747Z,100799.00
2022-07-31T21:19:03.785Z,100813.00
2022-07-31T21:21:30.711Z,100805.00
2022-07-31T21:24:00.696Z,100799.00
2022-07-31T21:26:29.279Z,100803.00
2022-07-31T21:28:56.391Z,100815.00
2022-07-31T21:31:23.469Z,100809.00
2022-07-31T21:33:50.583Z,100813.00
2022-07-31T21:36:18.514Z,100800.00
2022-07-31T21:38:45.624Z,100797.00
2022-07-31T21:41:12.893Z,100806.00
2022-07-31T21:43:58.418Z,100799.00
2022-07-31T21:46:27.842Z,100799.00
2022-07-31T21:48:55.010Z,100798.00
2022-07-31T21:51:23.037Z,100801.00
2022-07-31T21:53:49.978Z,100803.00
2022-07-31T21:56:17.010Z,100815.00
2022-07-31T21:58:44.640Z,100810.00
2022-07-31T22:01:11.741Z,100805.00
2022-07-31T22:03:38.835Z,100809.00
2022-07-31T22:06:26.205Z,100810.00
2022-07-31T22:08:53.270Z,100806.00
2022-07-31T22:11:20.256Z,100806.00
2022-07-31T22:13:47.074Z,100811.00
2022-07-31T22:16:13.944Z,100807.00
2022-07-31T22:18:42.119Z,100800.00
2022-07-31T22:21:09.164Z,100788.00
2022-07-31T22:23:36.271Z,100782.00
2022-07-31T22:26:03.410Z,100787.00
2022-07-31T22:28:30.567Z,100781.00
2022-07-31T22:30:59.054Z,100778.00
2022-07-31T22:33:26.053Z,100785.00
2022-07-31T22:35:59.969Z,100789.00
2022-07-31T22:38:31.014Z,100778.00
2022-07-31T22:40:59.284Z,100772.00
2022-07-31T22:44:09.592Z,100786.00
2022-07-31T22:46:14.062Z,100779.00
2022-07-31T22:48:41.315Z,100777.00
2022-07-31T22:51:08.844Z,100788.00
2022-07-31T22:53:36.316Z,100784.00
2022-07-31T22:56:03.449Z,100796.00
2022-07-31T22:58:30.543Z,100787.00
2022-07-31T23:00:57.557Z,100788.00
2022-07-31T23:03:24.438Z,100786.00
2022-07-31T23:06:02.999Z,100789.00
2022-07-31T23:08:38.359Z,100786.00
2022-07-31T23:11:05.176Z,100790.00
2022-07-31T23:13:31.988Z,100777.00
2022-07-31T23:15:59.640Z,100794.00
2022-07-31T23:18:26.584Z,100795.00
2022-07-31T23:20:53.437Z,100791.00
2022-07-31T23:23:20.263Z,100797.00
2022-07-31T23:25:47.103Z,100786.00
2022-07-31T23:28:13.912Z,100779.00
2022-07-31T23:30:40.749Z,100785.00
2022-07-31T23:33:07.565Z,100782.00
2022-07-31T23:35:34.441Z,100793.00
2022-07-31T23:38:01.243Z,100778.00
2022-07-31T23:40:28.280Z,100780.00
2022-07-31T23:42:55.087Z,100770.00
2022-07-31T23:45:23.498Z,100782.00
2022-07-31T23:47:50.806Z,100781.00
2022-07-31T23:50:17.852Z,100771.00
2022-07-31T23:52:44.860Z,100774.00
2022-07-31T23:55:11.971Z,100776.00
2022-07-31T23:57:39.953Z,100762.00
